VV01 YAMB-YWLM
Flight info
| Callsign | VV01 |
|---|---|
| Flight time | N/A |
| Altitude | 4500 |
| Route | VFR |
| Aircraft | U16/M-SDFIRY/LB1 |
Departure
| Time | 2026-04-20 05:47 |
|---|---|
| Airport | RAAF Base Amberley (YAMB) |
Arrival
| Time | N/A |
|---|---|
| Airport | Newcastle Airport (YWLM) |
| Time | Latitude | Longitude | Altitude | Speed | Heading |
|---|---|---|---|---|---|
| 2026-04-20 05:34 | -27.63388 | 152.70645 | 100 ft | 0 kts | 157° |
| 2026-04-20 05:41 | -27.63402 | 152.70653 | 100 ft | 7 kts | 146° |
| 2026-04-20 05:41 | -27.63404 | 152.70712 | 97 ft | 10 kts | 68° |
| 2026-04-20 05:41 | -27.63377 | 152.70793 | 95 ft | 10 kts | 68° |
| 2026-04-20 05:42 | -27.63336 | 152.70822 | 94 ft | 6 kts | 340° |
| 2026-04-20 05:42 | -27.63308 | 152.70810 | 94 ft | 5 kts | 339° |
| 2026-04-20 05:42 | -27.63276 | 152.70796 | 95 ft | 10 kts | 339° |
| 2026-04-20 05:42 | -27.63155 | 152.70743 | 93 ft | 18 kts | 339° |
| 2026-04-20 05:43 | -27.63048 | 152.70695 | 95 ft | 14 kts | 339° |
| 2026-04-20 05:43 | -27.62968 | 152.70660 | 95 ft | 12 kts | 340° |
| 2026-04-20 05:43 | -27.62890 | 152.70625 | 95 ft | 11 kts | 337° |
| 2026-04-20 05:43 | -27.62815 | 152.70591 | 94 ft | 12 kts | 344° |
| 2026-04-20 05:44 | -27.62746 | 152.70604 | 97 ft | 8 kts | 45° |
| 2026-04-20 05:44 | -27.62732 | 152.70630 | 95 ft | 1 kts | 67° |
| 2026-04-20 05:44 | -27.62721 | 152.70661 | 95 ft | 9 kts | 68° |
| 2026-04-20 05:45 | -27.62700 | 152.70741 | 94 ft | 10 kts | 99° |
| 2026-04-20 05:45 | -27.62737 | 152.70776 | 95 ft | 12 kts | 158° |
| 2026-04-20 05:45 | -27.62809 | 152.70807 | 97 ft | 7 kts | 159° |
| 2026-04-20 05:45 | -27.62848 | 152.70824 | 96 ft | 12 kts | 159° |
| 2026-04-20 05:46 | -27.63151 | 152.70955 | 93 ft | 77 kts | 159° |
| 2026-04-20 05:46 | -27.63547 | 152.71126 | 98 ft | 105 kts | 159° |
| 2026-04-20 05:46 | -27.64291 | 152.71445 | 223 ft | 124 kts | 154° |
| 2026-04-20 05:46 | -27.65468 | 152.71936 | 512 ft | 144 kts | 160° |
| 2026-04-20 05:47 | -27.66437 | 152.72315 | 846 ft | 148 kts | 160° |
| 2026-04-20 05:47 | -27.67408 | 152.72692 | 1242 ft | 146 kts | 161° |
| 2026-04-20 05:47 | -27.68363 | 152.73126 | 1540 ft | 147 kts | 162° |
| 2026-04-20 05:47 | -27.68975 | 152.73394 | 1813 ft | 142 kts | 147° |
| 2026-04-20 05:48 | -27.69588 | 152.74283 | 2079 ft | 152 kts | 114° |
| 2026-04-20 05:48 | -27.69715 | 152.75493 | 2363 ft | 159 kts | 90° |
| 2026-04-20 05:48 | -27.69598 | 152.76722 | 2762 ft | 155 kts | 87° |
| 2026-04-20 05:48 | -27.69367 | 152.78274 | 3157 ft | 144 kts | 85° |
| 2026-04-20 05:49 | -27.69257 | 152.79003 | 3375 ft | 135 kts | 86° |
| 2026-04-20 05:49 | -27.69136 | 152.80034 | 3517 ft | 133 kts | 95° |
| 2026-04-20 05:49 | -27.69276 | 152.81088 | 3547 ft | 140 kts | 110° |
| 2026-04-20 05:49 | -27.69570 | 152.82126 | 3683 ft | 141 kts | 111° |
| 2026-04-20 05:50 | -27.69860 | 152.83189 | 3815 ft | 143 kts | 111° |
| 2026-04-20 05:50 | -27.70154 | 152.84276 | 3940 ft | 146 kts | 111° |
| 2026-04-20 05:50 | -27.70454 | 152.85374 | 4063 ft | 146 kts | 111° |
| 2026-04-20 05:50 | -27.70733 | 152.86462 | 4188 ft | 144 kts | 110° |
| 2026-04-20 05:51 | -27.71021 | 152.87534 | 4296 ft | 141 kts | 111° |
| 2026-04-20 05:51 | -27.71394 | 152.88547 | 4431 ft | 140 kts | 134° |
| 2026-04-20 05:51 | -27.72258 | 152.88960 | 4519 ft | 140 kts | 172° |
| 2026-04-20 05:51 | -27.73191 | 152.89105 | 4523 ft | 146 kts | 170° |
| 2026-04-20 05:52 | -27.74213 | 152.89298 | 4534 ft | 151 kts | 169° |
| 2026-04-20 05:52 | -27.75266 | 152.89492 | 4529 ft | 157 kts | 170° |
| 2026-04-20 05:52 | -27.76351 | 152.89697 | 4532 ft | 160 kts | 170° |
| 2026-04-20 05:52 | -27.77469 | 152.89894 | 4529 ft | 165 kts | 171° |
| 2026-04-20 05:53 | -27.78605 | 152.90096 | 4536 ft | 166 kts | 170° |
| 2026-04-20 05:53 | -27.79746 | 152.90294 | 4536 ft | 166 kts | 170° |
| 2026-04-20 05:53 | -27.80862 | 152.90235 | 4617 ft | 155 kts | 194° |
| 2026-04-20 05:53 | -27.81809 | 152.89725 | 4561 ft | 151 kts | 203° |
| 2026-04-20 05:54 | -27.82737 | 152.89256 | 4487 ft | 138 kts | 200° |
| 2026-04-20 05:54 | -27.83588 | 152.88834 | 4190 ft | 131 kts | 201° |
| 2026-04-20 05:54 | -27.84435 | 152.88455 | 3740 ft | 132 kts | 196° |
| 2026-04-20 05:54 | -27.85311 | 152.88194 | 3308 ft | 129 kts | 188° |
| 2026-04-20 05:55 | -27.86168 | 152.88055 | 3029 ft | 118 kts | 185° |
| 2026-04-20 05:55 | -27.86960 | 152.87929 | 2656 ft | 118 kts | 186° |
| 2026-04-20 05:55 | -27.87788 | 152.87831 | 2181 ft | 119 kts | 180° |
| 2026-04-20 05:55 | -27.88605 | 152.87880 | 1794 ft | 121 kts | 175° |
| 2026-04-20 05:56 | -27.89513 | 152.87969 | 1013 ft | 139 kts | 171° |
| 2026-04-20 05:56 | -27.90475 | 152.88092 | 512 ft | 139 kts | 172° |
| 2026-04-20 05:56 | -27.91392 | 152.88157 | 275 ft | 120 kts | 176° |
| 2026-04-20 05:56 | -27.92082 | 152.88291 | 203 ft | 81 kts | 163° |
| 2026-04-20 05:57 | -27.92375 | 152.88390 | 200 ft | 18 kts | 162° |
| 2026-04-20 05:57 | -27.92439 | 152.88431 | 204 ft | 4 kts | 137° |
| 2026-04-20 05:57 | -27.92453 | 152.88444 | 203 ft | 2 kts | 157° |
| 2026-04-20 05:57 | -27.92460 | 152.88448 | 201 ft | 1 kts | 156° |
| 2026-04-20 05:58 | -27.92463 | 152.88450 | 199 ft | 0 kts | 156° |
| 2026-04-20 05:58 | -27.92465 | 152.88450 | 199 ft | 0 kts | 158° |
| 2026-04-20 05:58 | -27.92467 | 152.88449 | 199 ft | 1 kts | 153° |
| 2026-04-20 05:58 | -27.92471 | 152.88450 | 207 ft | 1 kts | 156° |
| 2026-04-20 05:59 | -27.92476 | 152.88450 | 198 ft | 1 kts | 158° |
| 2026-04-20 05:59 | -27.92479 | 152.88452 | 200 ft | 3 kts | 162° |
| 2026-04-20 05:59 | -27.92546 | 152.88456 | 207 ft | 32 kts | 182° |
| 2026-04-20 05:59 | -27.92942 | 152.88405 | 204 ft | 80 kts | 188° |
| 2026-04-20 06:00 | -27.93564 | 152.88314 | 352 ft | 105 kts | 180° |
| 2026-04-20 06:00 | -27.94321 | 152.88319 | 659 ft | 108 kts | 176° |
| 2026-04-20 06:00 | -27.95093 | 152.88318 | 883 ft | 115 kts | 180° |
| 2026-04-20 06:00 | -27.95915 | 152.88123 | 999 ft | 128 kts | 193° |
| 2026-04-20 06:01 | -27.96809 | 152.87800 | 1132 ft | 139 kts | 196° |
| 2026-04-20 06:01 | -27.97695 | 152.87391 | 1454 ft | 135 kts | 202° |
| 2026-04-20 06:01 | -27.98557 | 152.87026 | 1679 ft | 131 kts | 194° |
| 2026-04-20 06:01 | -27.99415 | 152.86836 | 1890 ft | 123 kts | 187° |
| 2026-04-20 06:02 | -28.00259 | 152.86689 | 2146 ft | 128 kts | 188° |
| 2026-04-20 06:02 | -28.01153 | 152.86464 | 2390 ft | 133 kts | 193° |
| 2026-04-20 06:02 | -28.02042 | 152.86032 | 2659 ft | 145 kts | 201° |
| 2026-04-20 06:02 | -28.02983 | 152.85542 | 2927 ft | 153 kts | 200° |
| 2026-04-20 06:03 | -28.03968 | 152.85025 | 3187 ft | 158 kts | 201° |
| 2026-04-20 06:03 | -28.04976 | 152.84501 | 3444 ft | 163 kts | 201° |
| 2026-04-20 06:03 | -28.06023 | 152.83954 | 3706 ft | 166 kts | 201° |
| 2026-04-20 06:03 | -28.07075 | 152.83404 | 3953 ft | 167 kts | 202° |
| 2026-04-20 06:04 | -28.08131 | 152.82840 | 4210 ft | 168 kts | 207° |
| 2026-04-20 06:04 | -28.09099 | 152.82114 | 4467 ft | 170 kts | 212° |
| 2026-04-20 06:04 | -28.10096 | 152.81320 | 4518 ft | 182 kts | 211° |
| 2026-04-20 06:04 | -28.11165 | 152.80481 | 4523 ft | 191 kts | 211° |
| 2026-04-20 06:05 | -28.12279 | 152.79608 | 4519 ft | 198 kts | 211° |
| 2026-04-20 06:05 | -28.13424 | 152.78715 | 4518 ft | 202 kts | 211° |
| 2026-04-20 06:05 | -28.14589 | 152.77810 | 4523 ft | 204 kts | 212° |
| 2026-04-20 06:05 | -28.15767 | 152.76894 | 4511 ft | 206 kts | 211° |
| 2026-04-20 06:06 | -28.16949 | 152.75972 | 4517 ft | 207 kts | 212° |
| 2026-04-20 06:06 | -28.18141 | 152.75051 | 4510 ft | 207 kts | 211° |
| 2026-04-20 06:06 | -28.19317 | 152.74153 | 4525 ft | 207 kts | 210° |
| 2026-04-20 06:06 | -28.20494 | 152.73231 | 4520 ft | 204 kts | 211° |
| 2026-04-20 06:07 | -28.21670 | 152.72296 | 4517 ft | 209 kts | 212° |
| 2026-04-20 06:07 | -28.22871 | 152.71363 | 4507 ft | 210 kts | 211° |
| 2026-04-20 06:07 | -28.24080 | 152.70444 | 4551 ft | 208 kts | 210° |
| 2026-04-20 06:07 | -28.25260 | 152.69526 | 4541 ft | 204 kts | 211° |
| 2026-04-20 06:08 | -28.26411 | 152.68631 | 4536 ft | 198 kts | 210° |
| 2026-04-20 06:08 | -28.27546 | 152.67801 | 4552 ft | 190 kts | 208° |
| 2026-04-20 06:08 | -28.28631 | 152.66944 | 4512 ft | 188 kts | 212° |
| 2026-04-20 06:08 | -28.29674 | 152.66080 | 4526 ft | 186 kts | 212° |
| 2026-04-20 06:09 | -28.30695 | 152.65251 | 4534 ft | 174 kts | 211° |
| 2026-04-20 06:09 | -28.31683 | 152.64440 | 4516 ft | 177 kts | 211° |
| 2026-04-20 06:09 | -28.32689 | 152.63637 | 4506 ft | 177 kts | 211° |
| 2026-04-20 06:09 | -28.33698 | 152.62821 | 4509 ft | 178 kts | 211° |
| 2026-04-20 06:10 | -28.34721 | 152.62011 | 4508 ft | 180 kts | 211° |
| 2026-04-20 06:10 | -28.35753 | 152.61205 | 4510 ft | 180 kts | 212° |
| 2026-04-20 06:10 | -28.36785 | 152.60391 | 4512 ft | 179 kts | 211° |
| 2026-04-20 06:10 | -28.37773 | 152.59602 | 4501 ft | 168 kts | 210° |
| 2026-04-20 06:11 | -28.38680 | 152.58849 | 4492 ft | 159 kts | 214° |
| 2026-04-20 06:11 | -28.39559 | 152.58147 | 4496 ft | 151 kts | 210° |
| 2026-04-20 06:11 | -28.40404 | 152.57469 | 4493 ft | 147 kts | 210° |
| 2026-04-20 06:11 | -28.41223 | 152.56785 | 4496 ft | 148 kts | 211° |
| 2026-04-20 06:12 | -28.42073 | 152.56067 | 4497 ft | 157 kts | 211° |
| 2026-04-20 06:12 | -28.42967 | 152.55328 | 4520 ft | 161 kts | 211° |
| 2026-04-20 06:12 | -28.43890 | 152.54571 | 4521 ft | 165 kts | 206° |
| 2026-04-20 06:12 | -28.44987 | 152.54237 | 4508 ft | 162 kts | 185° |
| 2026-04-20 06:13 | -28.46119 | 152.54070 | 4519 ft | 167 kts | 185° |
| 2026-04-20 06:13 | -28.47281 | 152.53862 | 4522 ft | 171 kts | 186° |
| 2026-04-20 06:13 | -28.48443 | 152.53659 | 4523 ft | 172 kts | 186° |
| 2026-04-20 06:13 | -28.49631 | 152.53451 | 4518 ft | 172 kts | 186° |
| 2026-04-20 06:14 | -28.50826 | 152.53251 | 4512 ft | 175 kts | 186° |
| 2026-04-20 06:14 | -28.52030 | 152.53055 | 4517 ft | 174 kts | 186° |
| 2026-04-20 06:14 | -28.53232 | 152.52848 | 4516 ft | 175 kts | 187° |
| 2026-04-20 06:14 | -28.54426 | 152.52645 | 4510 ft | 172 kts | 187° |
| 2026-04-20 06:15 | -28.55619 | 152.52458 | 4514 ft | 177 kts | 184° |
| 2026-04-20 06:15 | -28.56849 | 152.52239 | 4511 ft | 180 kts | 186° |
| 2026-04-20 06:15 | -28.58077 | 152.52010 | 4516 ft | 182 kts | 187° |
| 2026-04-20 06:15 | -28.59331 | 152.51772 | 4527 ft | 183 kts | 186° |
| 2026-04-20 06:16 | -28.60595 | 152.51532 | 4516 ft | 185 kts | 187° |
| 2026-04-20 06:16 | -28.61859 | 152.51292 | 4521 ft | 184 kts | 187° |
| 2026-04-20 06:16 | -28.63133 | 152.51059 | 4508 ft | 185 kts | 187° |
| 2026-04-20 06:16 | -28.64386 | 152.50828 | 4512 ft | 181 kts | 185° |
| 2026-04-20 06:17 | -28.65600 | 152.50605 | 4536 ft | 175 kts | 185° |
| 2026-04-20 06:17 | -28.66816 | 152.50389 | 4527 ft | 179 kts | 186° |
| 2026-04-20 06:17 | -28.68061 | 152.50157 | 4521 ft | 183 kts | 186° |
| 2026-04-20 06:17 | -28.69328 | 152.49923 | 4526 ft | 186 kts | 187° |
| 2026-04-20 06:18 | -28.70606 | 152.49686 | 4529 ft | 187 kts | 186° |
| 2026-04-20 06:18 | -28.71892 | 152.49445 | 4531 ft | 188 kts | 186° |
| 2026-04-20 06:18 | -28.73181 | 152.49208 | 4534 ft | 188 kts | 186° |
| 2026-04-20 06:18 | -28.74461 | 152.48969 | 4539 ft | 188 kts | 186° |
| 2026-04-20 06:19 | -28.75738 | 152.48732 | 4525 ft | 183 kts | 186° |
| 2026-04-20 06:19 | -28.76977 | 152.48496 | 4521 ft | 178 kts | 186° |
| 2026-04-20 06:19 | -28.78179 | 152.48262 | 4517 ft | 173 kts | 186° |
| 2026-04-20 06:19 | -28.79353 | 152.48035 | 4515 ft | 170 kts | 186° |
| 2026-04-20 06:20 | -28.80519 | 152.47809 | 4504 ft | 169 kts | 187° |
| 2026-04-20 06:20 | -28.81670 | 152.47584 | 4515 ft | 167 kts | 187° |
| 2026-04-20 06:20 | -28.82814 | 152.47367 | 4514 ft | 167 kts | 187° |
| 2026-04-20 06:20 | -28.83945 | 152.47158 | 4510 ft | 167 kts | 188° |
| 2026-04-20 06:21 | -28.85084 | 152.46956 | 4520 ft | 164 kts | 185° |
| 2026-04-20 06:21 | -28.86213 | 152.46750 | 4519 ft | 165 kts | 186° |
| 2026-04-20 06:21 | -28.87357 | 152.46537 | 4519 ft | 167 kts | 186° |
| 2026-04-20 06:21 | -28.88505 | 152.46305 | 4518 ft | 168 kts | 187° |
| 2026-04-20 06:22 | -28.89652 | 152.46067 | 4517 ft | 167 kts | 193° |
| 2026-04-20 06:22 | -28.90677 | 152.45414 | 4523 ft | 170 kts | 213° |
| 2026-04-20 06:22 | -28.91618 | 152.44634 | 4593 ft | 165 kts | 211° |
| 2026-04-20 06:22 | -28.92508 | 152.43894 | 4837 ft | 155 kts | 211° |
| 2026-04-20 06:23 | -28.93372 | 152.43172 | 5079 ft | 152 kts | 212° |
| 2026-04-20 06:23 | -28.94232 | 152.42477 | 5317 ft | 151 kts | 212° |
| 2026-04-20 06:23 | -28.95080 | 152.41796 | 5561 ft | 147 kts | 211° |
| 2026-04-20 06:23 | -28.95912 | 152.41131 | 5802 ft | 145 kts | 212° |
| 2026-04-20 06:24 | -28.96739 | 152.40463 | 6044 ft | 145 kts | 210° |
| 2026-04-20 06:24 | -28.97562 | 152.39791 | 6297 ft | 146 kts | 213° |
| 2026-04-20 06:24 | -28.98381 | 152.39139 | 6545 ft | 145 kts | 212° |
| 2026-04-20 06:24 | -28.99208 | 152.38481 | 6781 ft | 145 kts | 212° |
| 2026-04-20 06:25 | -29.00033 | 152.37836 | 7022 ft | 143 kts | 211° |
| 2026-04-20 06:25 | -29.00854 | 152.37198 | 7264 ft | 143 kts | 211° |
| 2026-04-20 06:25 | -29.01668 | 152.36558 | 7505 ft | 142 kts | 211° |
| 2026-04-20 06:25 | -29.02477 | 152.35916 | 7749 ft | 141 kts | 211° |
| 2026-04-20 06:26 | -29.03281 | 152.35275 | 7991 ft | 141 kts | 211° |
| 2026-04-20 06:26 | -29.04085 | 152.34645 | 8236 ft | 139 kts | 211° |
| 2026-04-20 06:26 | -29.04883 | 152.34023 | 8485 ft | 139 kts | 211° |
| 2026-04-20 06:26 | -29.05674 | 152.33395 | 8734 ft | 140 kts | 211° |
| 2026-04-20 06:27 | -29.06481 | 152.32768 | 8996 ft | 141 kts | 211° |
| 2026-04-20 06:27 | -29.07283 | 152.32122 | 9251 ft | 140 kts | 211° |
| 2026-04-20 06:27 | -29.08067 | 152.31478 | 9507 ft | 138 kts | 212° |
| 2026-04-20 06:27 | -29.08852 | 152.30852 | 9776 ft | 139 kts | 211° |
| 2026-04-20 06:28 | -29.09646 | 152.30220 | 10032 ft | 138 kts | 211° |
| 2026-04-20 06:28 | -29.10418 | 152.29592 | 10265 ft | 136 kts | 212° |
| 2026-04-20 06:28 | -29.11189 | 152.28968 | 10505 ft | 135 kts | 211° |
| 2026-04-20 06:28 | -29.11958 | 152.28349 | 10746 ft | 135 kts | 211° |
| 2026-04-20 06:29 | -29.12717 | 152.27741 | 10980 ft | 135 kts | 211° |
| 2026-04-20 06:29 | -29.13484 | 152.27127 | 11221 ft | 135 kts | 211° |
| 2026-04-20 06:29 | -29.14261 | 152.26504 | 11466 ft | 137 kts | 211° |
| 2026-04-20 06:29 | -29.15047 | 152.25879 | 11712 ft | 138 kts | 211° |
| 2026-04-20 06:30 | -29.15836 | 152.25248 | 11952 ft | 138 kts | 212° |
| 2026-04-20 06:30 | -29.16629 | 152.24619 | 12210 ft | 139 kts | 211° |
| 2026-04-20 06:30 | -29.17430 | 152.23994 | 12466 ft | 140 kts | 211° |
| 2026-04-20 06:30 | -29.18232 | 152.23365 | 12716 ft | 140 kts | 211° |
| 2026-04-20 06:31 | -29.19026 | 152.22743 | 12966 ft | 140 kts | 211° |
| 2026-04-20 06:31 | -29.19831 | 152.22120 | 13218 ft | 139 kts | 211° |
| 2026-04-20 06:31 | -29.20629 | 152.21501 | 13475 ft | 138 kts | 212° |
| 2026-04-20 06:31 | -29.21422 | 152.20887 | 13729 ft | 137 kts | 211° |
| 2026-04-20 06:32 | -29.22203 | 152.20283 | 13991 ft | 134 kts | 211° |
| 2026-04-20 06:32 | -29.22970 | 152.19672 | 14221 ft | 134 kts | 212° |
| 2026-04-20 06:32 | -29.23744 | 152.19079 | 14454 ft | 134 kts | 211° |
| 2026-04-20 06:32 | -29.24543 | 152.18473 | 14525 ft | 144 kts | 211° |
| 2026-04-20 06:33 | -29.25427 | 152.17808 | 14513 ft | 158 kts | 212° |
| 2026-04-20 06:33 | -29.26356 | 152.17110 | 14508 ft | 164 kts | 211° |
| 2026-04-20 06:33 | -29.27325 | 152.16374 | 14506 ft | 170 kts | 211° |
| 2026-04-20 06:33 | -29.28301 | 152.15626 | 14508 ft | 168 kts | 212° |
| 2026-04-20 06:34 | -29.29282 | 152.14876 | 14507 ft | 170 kts | 211° |
| 2026-04-20 06:34 | -29.30274 | 152.14119 | 14507 ft | 172 kts | 211° |
| 2026-04-20 06:34 | -29.32280 | 152.12589 | 14503 ft | 174 kts | 211° |
| 2026-04-20 06:35 | -29.33287 | 152.11822 | 14502 ft | 174 kts | 211° |
| 2026-04-20 06:35 | -29.34296 | 152.11056 | 14509 ft | 174 kts | 211° |
| 2026-04-20 06:35 | -29.35312 | 152.10284 | 14500 ft | 175 kts | 211° |
| 2026-04-20 06:35 | -29.36316 | 152.09524 | 14501 ft | 176 kts | 211° |
| 2026-04-20 06:36 | -29.37336 | 152.08748 | 14496 ft | 176 kts | 211° |
| 2026-04-20 06:36 | -29.38354 | 152.07971 | 14501 ft | 176 kts | 211° |
| 2026-04-20 06:36 | -29.39373 | 152.07198 | 14509 ft | 175 kts | 211° |
| 2026-04-20 06:36 | -29.40389 | 152.06423 | 14504 ft | 175 kts | 211° |
| 2026-04-20 06:37 | -29.41406 | 152.05648 | 14506 ft | 175 kts | 211° |
| 2026-04-20 06:37 | -29.42421 | 152.04874 | 14501 ft | 175 kts | 211° |
| 2026-04-20 06:37 | -29.43433 | 152.04100 | 14507 ft | 175 kts | 211° |
| 2026-04-20 06:37 | -29.44448 | 152.03329 | 14498 ft | 175 kts | 211° |
| 2026-04-20 06:38 | -29.45461 | 152.02559 | 14501 ft | 175 kts | 211° |
| 2026-04-20 06:38 | -29.46475 | 152.01791 | 14504 ft | 174 kts | 211° |
| 2026-04-20 06:38 | -29.47474 | 152.01033 | 14514 ft | 175 kts | 211° |
| 2026-04-20 06:38 | -29.48491 | 152.00258 | 14509 ft | 176 kts | 211° |
| 2026-04-20 06:39 | -29.49506 | 151.99487 | 14504 ft | 175 kts | 211° |
| 2026-04-20 06:39 | -29.50524 | 151.98706 | 14503 ft | 176 kts | 211° |
| 2026-04-20 06:39 | -29.51544 | 151.97929 | 14500 ft | 177 kts | 211° |
| 2026-04-20 06:39 | -29.52569 | 151.97143 | 14501 ft | 177 kts | 211° |
| 2026-04-20 06:40 | -29.53593 | 151.96359 | 14502 ft | 177 kts | 211° |
| 2026-04-20 06:40 | -29.54621 | 151.95574 | 14501 ft | 177 kts | 211° |
| 2026-04-20 06:40 | -29.55631 | 151.94798 | 14501 ft | 177 kts | 211° |
| 2026-04-20 06:40 | -29.56654 | 151.94012 | 14507 ft | 177 kts | 211° |
| 2026-04-20 06:41 | -29.57680 | 151.93227 | 14506 ft | 177 kts | 211° |
| 2026-04-20 06:41 | -29.58701 | 151.92446 | 14492 ft | 176 kts | 211° |
| 2026-04-20 06:41 | -29.59727 | 151.91671 | 14491 ft | 176 kts | 211° |
| 2026-04-20 06:41 | -29.60751 | 151.90895 | 14491 ft | 176 kts | 211° |
| 2026-04-20 06:42 | -29.61773 | 151.90116 | 14512 ft | 176 kts | 211° |
| 2026-04-20 06:42 | -29.62799 | 151.89330 | 14511 ft | 178 kts | 211° |
| 2026-04-20 06:42 | -29.63817 | 151.88552 | 14508 ft | 179 kts | 212° |
| 2026-04-20 06:42 | -29.64859 | 151.87763 | 14513 ft | 180 kts | 211° |
| 2026-04-20 06:43 | -29.65903 | 151.86970 | 14509 ft | 180 kts | 211° |
| 2026-04-20 06:43 | -29.66950 | 151.86177 | 14507 ft | 180 kts | 211° |
| 2026-04-20 06:43 | -29.67998 | 151.85383 | 14509 ft | 180 kts | 211° |
| 2026-04-20 06:43 | -29.69046 | 151.84591 | 14515 ft | 180 kts | 211° |
| 2026-04-20 06:44 | -29.70096 | 151.83799 | 14512 ft | 180 kts | 211° |
| 2026-04-20 06:44 | -29.71145 | 151.83005 | 14511 ft | 181 kts | 212° |
| 2026-04-20 06:44 | -29.72182 | 151.82224 | 14510 ft | 181 kts | 211° |
| 2026-04-20 06:44 | -29.73232 | 151.81433 | 14508 ft | 181 kts | 211° |
| 2026-04-20 06:45 | -29.74285 | 151.80639 | 14505 ft | 181 kts | 211° |
| 2026-04-20 06:45 | -29.75337 | 151.79848 | 14504 ft | 181 kts | 211° |
| 2026-04-20 06:45 | -29.76392 | 151.79055 | 14509 ft | 181 kts | 211° |
| 2026-04-20 06:45 | -29.77446 | 151.78264 | 14502 ft | 181 kts | 211° |
| 2026-04-20 06:46 | -29.78496 | 151.77471 | 14501 ft | 181 kts | 211° |
| 2026-04-20 06:46 | -29.79549 | 151.76683 | 14500 ft | 181 kts | 211° |
| 2026-04-20 06:46 | -29.80601 | 151.75892 | 14501 ft | 180 kts | 211° |
| 2026-04-20 06:46 | -29.81638 | 151.75111 | 14501 ft | 180 kts | 211° |
| 2026-04-20 06:47 | -29.82688 | 151.74322 | 14504 ft | 180 kts | 211° |
| 2026-04-20 06:47 | -29.83737 | 151.73530 | 14504 ft | 180 kts | 211° |
| 2026-04-20 06:47 | -29.84788 | 151.72740 | 14504 ft | 180 kts | 211° |
| 2026-04-20 06:47 | -29.85838 | 151.71948 | 14508 ft | 181 kts | 211° |
| 2026-04-20 06:48 | -29.86892 | 151.71153 | 14511 ft | 181 kts | 211° |
| 2026-04-20 06:48 | -29.87944 | 151.70360 | 14510 ft | 181 kts | 211° |
| 2026-04-20 06:48 | -29.88996 | 151.69566 | 14514 ft | 181 kts | 211° |
| 2026-04-20 06:48 | -29.90050 | 151.68774 | 14513 ft | 181 kts | 211° |
| 2026-04-20 06:49 | -29.91102 | 151.67982 | 14513 ft | 181 kts | 211° |
| 2026-04-20 06:49 | -29.92146 | 151.67192 | 14508 ft | 182 kts | 211° |
| 2026-04-20 06:49 | -29.93208 | 151.66391 | 14511 ft | 183 kts | 211° |
| 2026-04-20 06:49 | -29.94274 | 151.65580 | 14508 ft | 184 kts | 212° |
| 2026-04-20 06:50 | -29.95344 | 151.64774 | 14509 ft | 184 kts | 211° |
| 2026-04-20 06:50 | -29.96418 | 151.63964 | 14512 ft | 185 kts | 211° |
| 2026-04-20 06:50 | -29.97493 | 151.63155 | 14509 ft | 184 kts | 211° |
| 2026-04-20 06:50 | -29.98570 | 151.62345 | 14494 ft | 185 kts | 211° |
| 2026-04-20 06:51 | -29.99648 | 151.61540 | 14517 ft | 185 kts | 211° |
| 2026-04-20 06:51 | -30.00731 | 151.60733 | 14515 ft | 186 kts | 211° |
| 2026-04-20 06:51 | -30.01801 | 151.59935 | 14519 ft | 186 kts | 211° |
| 2026-04-20 06:51 | -30.02884 | 151.59126 | 14518 ft | 186 kts | 211° |
| 2026-04-20 06:52 | -30.03972 | 151.58316 | 14517 ft | 186 kts | 211° |
| 2026-04-20 06:52 | -30.05060 | 151.57502 | 14515 ft | 186 kts | 211° |
| 2026-04-20 06:52 | -30.06148 | 151.56687 | 14505 ft | 187 kts | 211° |
| 2026-04-20 06:52 | -30.07236 | 151.55872 | 14505 ft | 186 kts | 211° |
| 2026-04-20 06:53 | -30.08323 | 151.55056 | 14515 ft | 186 kts | 211° |
| 2026-04-20 06:53 | -30.09410 | 151.54241 | 14515 ft | 187 kts | 211° |
| 2026-04-20 06:53 | -30.10485 | 151.53435 | 14516 ft | 187 kts | 211° |
| 2026-04-20 06:53 | -30.11574 | 151.52619 | 14517 ft | 186 kts | 211° |
| 2026-04-20 06:54 | -30.12661 | 151.51804 | 14514 ft | 186 kts | 211° |
| 2026-04-20 06:54 | -30.13747 | 151.50986 | 14516 ft | 186 kts | 211° |
| 2026-04-20 06:54 | -30.14835 | 151.50169 | 14515 ft | 186 kts | 211° |
| 2026-04-20 06:54 | -30.15921 | 151.49350 | 14512 ft | 186 kts | 211° |
| 2026-04-20 06:55 | -30.17007 | 151.48536 | 14517 ft | 186 kts | 211° |
| 2026-04-20 06:55 | -30.18096 | 151.47722 | 14518 ft | 186 kts | 211° |
| 2026-04-20 06:55 | -30.19182 | 151.46908 | 14516 ft | 186 kts | 211° |
| 2026-04-20 06:55 | -30.20269 | 151.46092 | 14516 ft | 186 kts | 211° |
| 2026-04-20 06:56 | -30.21342 | 151.45292 | 14500 ft | 186 kts | 211° |
| 2026-04-20 06:56 | -30.22433 | 151.44476 | 14499 ft | 187 kts | 211° |
| 2026-04-20 06:56 | -30.23521 | 151.43660 | 14500 ft | 186 kts | 211° |
| 2026-04-20 06:56 | -30.24610 | 151.42843 | 14503 ft | 187 kts | 211° |
| 2026-04-20 06:57 | -30.25700 | 151.42025 | 14500 ft | 187 kts | 211° |
| 2026-04-20 06:57 | -30.26792 | 151.41206 | 14501 ft | 187 kts | 211° |
| 2026-04-20 06:57 | -30.27881 | 151.40388 | 14496 ft | 186 kts | 211° |
| 2026-04-20 06:57 | -30.28965 | 151.39571 | 14476 ft | 187 kts | 211° |
| 2026-04-20 06:58 | -30.30076 | 151.38736 | 14319 ft | 195 kts | 211° |
| 2026-04-20 06:58 | -30.31222 | 151.37880 | 14122 ft | 202 kts | 211° |
| 2026-04-20 06:58 | -30.32422 | 151.36982 | 13908 ft | 208 kts | 211° |
| 2026-04-20 06:58 | -30.33645 | 151.36063 | 13671 ft | 212 kts | 211° |
| 2026-04-20 06:59 | -30.34878 | 151.35116 | 13439 ft | 214 kts | 212° |
| 2026-04-20 06:59 | -30.36129 | 151.34155 | 13193 ft | 216 kts | 212° |
| 2026-04-20 06:59 | -30.37387 | 151.33194 | 12929 ft | 217 kts | 211° |
| 2026-04-20 06:59 | -30.38657 | 151.32229 | 12667 ft | 219 kts | 212° |
| 2026-04-20 07:00 | -30.39935 | 151.31260 | 12433 ft | 219 kts | 211° |
| 2026-04-20 07:00 | -30.41214 | 151.30289 | 12184 ft | 221 kts | 211° |
| 2026-04-20 07:00 | -30.42482 | 151.29323 | 11945 ft | 222 kts | 211° |
| 2026-04-20 07:00 | -30.43787 | 151.28328 | 11703 ft | 228 kts | 211° |
| 2026-04-20 07:01 | -30.45120 | 151.27310 | 11515 ft | 230 kts | 211° |
| 2026-04-20 07:01 | -30.46443 | 151.26300 | 11395 ft | 226 kts | 212° |
| 2026-04-20 07:01 | -30.47741 | 151.25304 | 11266 ft | 222 kts | 211° |
| 2026-04-20 07:01 | -30.49026 | 151.24318 | 11150 ft | 220 kts | 211° |
| 2026-04-20 07:02 | -30.50296 | 151.23340 | 11027 ft | 219 kts | 211° |
| 2026-04-20 07:02 | -30.51561 | 151.22364 | 10899 ft | 218 kts | 211° |
| 2026-04-20 07:02 | -30.52805 | 151.21407 | 10783 ft | 217 kts | 211° |
| 2026-04-20 07:02 | -30.54062 | 151.20435 | 10659 ft | 217 kts | 211° |
| 2026-04-20 07:03 | -30.55321 | 151.19468 | 10535 ft | 217 kts | 211° |
| 2026-04-20 07:03 | -30.56585 | 151.18498 | 10385 ft | 219 kts | 211° |
| 2026-04-20 07:03 | -30.57865 | 151.17517 | 10195 ft | 222 kts | 211° |
| 2026-04-20 07:03 | -30.59161 | 151.16525 | 10047 ft | 222 kts | 211° |
| 2026-04-20 07:04 | -30.60444 | 151.15543 | 9934 ft | 220 kts | 211° |
| 2026-04-20 07:04 | -30.61724 | 151.14563 | 9780 ft | 221 kts | 211° |
| 2026-04-20 07:04 | -30.63013 | 151.13579 | 9605 ft | 222 kts | 211° |
| 2026-04-20 07:04 | -30.64311 | 151.12587 | 9418 ft | 224 kts | 211° |
| 2026-04-20 07:05 | -30.65615 | 151.11587 | 9229 ft | 225 kts | 212° |
| 2026-04-20 07:05 | -30.66924 | 151.10584 | 9034 ft | 226 kts | 211° |
| 2026-04-20 07:05 | -30.68226 | 151.09583 | 8836 ft | 227 kts | 211° |
| 2026-04-20 07:05 | -30.69544 | 151.08566 | 8638 ft | 228 kts | 212° |
| 2026-04-20 07:06 | -30.70866 | 151.07547 | 8439 ft | 228 kts | 212° |
| 2026-04-20 07:06 | -30.72194 | 151.06527 | 8250 ft | 229 kts | 212° |
| 2026-04-20 07:06 | -30.73522 | 151.05504 | 8043 ft | 229 kts | 212° |
| 2026-04-20 07:06 | -30.74852 | 151.04479 | 7847 ft | 230 kts | 212° |
| 2026-04-20 07:07 | -30.76165 | 151.03464 | 7786 ft | 225 kts | 211° |
| 2026-04-20 07:07 | -30.77463 | 151.02443 | 7655 ft | 225 kts | 211° |
| 2026-04-20 07:07 | -30.78759 | 151.01412 | 7499 ft | 226 kts | 212° |
| 2026-04-20 07:07 | -30.80046 | 151.00392 | 7348 ft | 227 kts | 211° |
| 2026-04-20 07:08 | -30.81343 | 150.99360 | 7209 ft | 227 kts | 211° |
| 2026-04-20 07:08 | -30.82645 | 150.98314 | 7015 ft | 227 kts | 211° |
| 2026-04-20 07:08 | -30.83938 | 150.97282 | 6832 ft | 219 kts | 211° |
| 2026-04-20 07:08 | -30.85149 | 150.96303 | 6631 ft | 206 kts | 210° |
| 2026-04-20 07:09 | -30.86293 | 150.95366 | 6410 ft | 195 kts | 211° |
| 2026-04-20 07:09 | -30.87384 | 150.94470 | 6185 ft | 189 kts | 212° |
| 2026-04-20 07:09 | -30.88462 | 150.93587 | 5981 ft | 190 kts | 211° |
| 2026-04-20 07:09 | -30.89536 | 150.92694 | 5781 ft | 189 kts | 211° |
| 2026-04-20 07:10 | -30.90598 | 150.91798 | 5610 ft | 188 kts | 212° |
| 2026-04-20 07:10 | -30.91640 | 150.90932 | 5443 ft | 182 kts | 212° |
| 2026-04-20 07:10 | -30.92625 | 150.90123 | 5250 ft | 163 kts | 211° |
| 2026-04-20 07:10 | -30.93494 | 150.89387 | 5033 ft | 146 kts | 210° |
| 2026-04-20 07:11 | -30.94302 | 150.88754 | 4740 ft | 136 kts | 199° |
| 2026-04-20 07:11 | -30.95171 | 150.88330 | 4482 ft | 134 kts | 199° |
| 2026-04-20 07:11 | -30.96004 | 150.87848 | 4257 ft | 133 kts | 202° |
| 2026-04-20 07:11 | -30.96838 | 150.87361 | 4056 ft | 133 kts | 202° |
| 2026-04-20 07:12 | -30.97650 | 150.86854 | 3886 ft | 132 kts | 203° |
| 2026-04-20 07:12 | -30.98443 | 150.86312 | 3720 ft | 131 kts | 206° |
| 2026-04-20 07:12 | -30.99187 | 150.85743 | 3586 ft | 128 kts | 207° |
| 2026-04-20 07:12 | -30.99906 | 150.85165 | 3488 ft | 124 kts | 209° |
| 2026-04-20 07:13 | -31.00604 | 150.84547 | 3309 ft | 128 kts | 210° |
| 2026-04-20 07:13 | -31.01364 | 150.83964 | 3068 ft | 131 kts | 205° |
| 2026-04-20 07:13 | -31.02152 | 150.83464 | 2914 ft | 128 kts | 202° |
| 2026-04-20 07:13 | -31.02936 | 150.82983 | 2765 ft | 126 kts | 202° |
| 2026-04-20 07:14 | -31.03681 | 150.82483 | 2607 ft | 123 kts | 207° |
| 2026-04-20 07:14 | -31.04455 | 150.82097 | 2446 ft | 117 kts | 189° |
| 2026-04-20 07:14 | -31.05218 | 150.82151 | 2359 ft | 106 kts | 165° |
| 2026-04-20 07:14 | -31.05876 | 150.82547 | 2075 ft | 110 kts | 152° |
| 2026-04-20 07:15 | -31.06509 | 150.83074 | 1779 ft | 113 kts | 146° |
| 2026-04-20 07:15 | -31.07096 | 150.83698 | 1414 ft | 115 kts | 139° |
| 2026-04-20 07:15 | -31.07572 | 150.84290 | 1348 ft | 82 kts | 142° |
| 2026-04-20 07:15 | -31.07892 | 150.84676 | 1350 ft | 54 kts | 136° |
| 2026-04-20 07:16 | -31.08075 | 150.84887 | 1347 ft | 29 kts | 131° |
| 2026-04-20 07:16 | -31.08344 | 150.85219 | 1363 ft | 76 kts | 135° |
| 2026-04-20 07:16 | -31.08717 | 150.85681 | 1581 ft | 82 kts | 143° |
| 2026-04-20 07:16 | -31.09188 | 150.86147 | 1758 ft | 97 kts | 147° |
| 2026-04-20 07:17 | -31.09743 | 150.86728 | 1852 ft | 119 kts | 143° |
| 2026-04-20 07:17 | -31.10398 | 150.87425 | 2025 ft | 136 kts | 140° |
| 2026-04-20 07:17 | -31.11094 | 150.88211 | 2324 ft | 143 kts | 137° |
| 2026-04-20 07:17 | -31.11799 | 150.89059 | 2646 ft | 150 kts | 135° |
| 2026-04-20 07:18 | -31.12581 | 150.89929 | 2809 ft | 158 kts | 137° |
| 2026-04-20 07:18 | -31.13388 | 150.90814 | 3096 ft | 160 kts | 137° |
| 2026-04-20 07:18 | -31.14172 | 150.91727 | 3459 ft | 158 kts | 136° |
| 2026-04-20 07:18 | -31.14938 | 150.92599 | 3915 ft | 149 kts | 136° |
| 2026-04-20 07:19 | -31.15664 | 150.93414 | 4401 ft | 141 kts | 137° |
| 2026-04-20 07:19 | -31.16364 | 150.94173 | 4877 ft | 134 kts | 138° |
| 2026-04-20 07:19 | -31.17038 | 150.94897 | 5354 ft | 130 kts | 138° |
| 2026-04-20 07:19 | -31.17696 | 150.95595 | 5842 ft | 126 kts | 138° |
| 2026-04-20 07:20 | -31.18329 | 150.96265 | 6300 ft | 123 kts | 137° |
| 2026-04-20 07:20 | -31.19005 | 150.96981 | 6486 ft | 146 kts | 137° |
| 2026-04-20 07:20 | -31.19821 | 150.97849 | 6501 ft | 170 kts | 137° |
| 2026-04-20 07:20 | -31.20742 | 150.98830 | 6519 ft | 187 kts | 138° |
| 2026-04-20 07:21 | -31.21725 | 150.99881 | 6518 ft | 196 kts | 137° |
| 2026-04-20 07:21 | -31.22747 | 151.00972 | 6515 ft | 202 kts | 138° |
| 2026-04-20 07:21 | -31.23790 | 151.02093 | 6513 ft | 206 kts | 137° |
| 2026-04-20 07:21 | -31.24850 | 151.03236 | 6513 ft | 209 kts | 137° |
| 2026-04-20 07:22 | -31.25924 | 151.04388 | 6525 ft | 210 kts | 139° |
| 2026-04-20 07:22 | -31.26986 | 151.05568 | 6516 ft | 210 kts | 137° |
| 2026-04-20 07:22 | -31.28011 | 151.06748 | 6513 ft | 209 kts | 137° |
| 2026-04-20 07:22 | -31.29052 | 151.07937 | 6515 ft | 209 kts | 137° |
| 2026-04-20 07:23 | -31.30102 | 151.09125 | 6517 ft | 211 kts | 137° |
| 2026-04-20 07:23 | -31.31157 | 151.10319 | 6524 ft | 212 kts | 137° |
| 2026-04-20 07:23 | -31.32209 | 151.11516 | 6523 ft | 210 kts | 137° |
| 2026-04-20 07:23 | -31.33260 | 151.12707 | 6524 ft | 211 kts | 137° |
| 2026-04-20 07:24 | -31.34310 | 151.13890 | 6487 ft | 201 kts | 140° |
| 2026-04-20 07:24 | -31.35257 | 151.14934 | 6264 ft | 178 kts | 129° |
| 2026-04-20 07:24 | -31.35786 | 151.16161 | 5973 ft | 168 kts | 107° |
| 2026-04-20 07:24 | -31.35572 | 151.17544 | 5400 ft | 186 kts | 64° |
| 2026-04-20 07:25 | -31.34622 | 151.18519 | 5171 ft | 179 kts | 30° |
| 2026-04-20 07:25 | -31.33405 | 151.18713 | 4791 ft | 184 kts | 355° |
| 2026-04-20 07:25 | -31.32234 | 151.17998 | 4057 ft | 200 kts | 315° |
| 2026-04-20 07:25 | -31.31745 | 151.16481 | 2984 ft | 212 kts | 260° |
| 2026-04-20 07:26 | -31.32222 | 151.14955 | 2728 ft | 184 kts | 245° |
| 2026-04-20 07:26 | -31.32576 | 151.13613 | 2460 ft | 167 kts | 251° |
| 2026-04-20 07:26 | -31.33050 | 151.12480 | 2211 ft | 143 kts | 212° |
| 2026-04-20 07:26 | -31.33865 | 151.12373 | 1963 ft | 111 kts | 172° |
| 2026-04-20 07:27 | -31.34568 | 151.12395 | 1739 ft | 89 kts | 173° |
| 2026-04-20 07:27 | -31.35091 | 151.12490 | 1684 ft | 66 kts | 162° |
| 2026-04-20 07:27 | -31.35438 | 151.12618 | 1678 ft | 29 kts | 155° |
| 2026-04-20 07:27 | -31.35536 | 151.12683 | 1683 ft | 7 kts | 140° |
| 2026-04-20 07:28 | -31.35554 | 151.12702 | 1675 ft | 2 kts | 128° |
| 2026-04-20 07:28 | -31.35559 | 151.12709 | 1675 ft | 1 kts | 128° |
| 2026-04-20 07:28 | -31.35561 | 151.12713 | 1675 ft | 0 kts | 128° |
| 2026-04-20 07:28 | -31.35562 | 151.12713 | 1674 ft | 0 kts | 129° |
| 2026-04-20 07:29 | -31.35563 | 151.12712 | 1681 ft | 0 kts | 129° |
| 2026-04-20 07:29 | -31.35564 | 151.12710 | 1680 ft | 0 kts | 129° |
| 2026-04-20 07:29 | -31.35565 | 151.12707 | 1678 ft | 1 kts | 131° |
| 2026-04-20 07:29 | -31.35567 | 151.12703 | 1677 ft | 0 kts | 131° |
| 2026-04-20 07:30 | -31.35569 | 151.12700 | 1676 ft | 0 kts | 130° |
| 2026-04-20 07:30 | -31.35570 | 151.12697 | 1682 ft | 0 kts | 130° |
| 2026-04-20 07:30 | -31.35571 | 151.12695 | 1681 ft | 0 kts | 130° |
| 2026-04-20 07:30 | -31.35572 | 151.12693 | 1680 ft | 0 kts | 129° |
| 2026-04-20 07:31 | -31.35574 | 151.12690 | 1679 ft | 1 kts | 139° |
| 2026-04-20 07:31 | -31.35578 | 151.12685 | 1688 ft | 1 kts | 134° |
| 2026-04-20 07:31 | -31.35582 | 151.12682 | 1681 ft | 1 kts | 130° |
| 2026-04-20 07:31 | -31.35584 | 151.12678 | 1679 ft | 1 kts | 130° |
| 2026-04-20 07:32 | -31.35586 | 151.12675 | 1680 ft | 1 kts | 130° |
| 2026-04-20 07:32 | -31.35588 | 151.12671 | 1679 ft | 0 kts | 131° |
| 2026-04-20 07:32 | -31.35589 | 151.12668 | 1678 ft | 0 kts | 132° |
| 2026-04-20 07:32 | -31.35590 | 151.12664 | 1679 ft | 1 kts | 130° |
| 2026-04-20 07:33 | -31.35591 | 151.12662 | 1679 ft | 0 kts | 128° |
| 2026-04-20 07:33 | -31.35593 | 151.12664 | 1688 ft | 1 kts | 130° |
| 2026-04-20 07:33 | -31.35598 | 151.12671 | 1686 ft | 1 kts | 129° |
| 2026-04-20 07:33 | -31.35605 | 151.12678 | 1683 ft | 1 kts | 130° |
| 2026-04-20 07:34 | -31.35612 | 151.12686 | 1679 ft | 3 kts | 136° |
| 2026-04-20 07:34 | -31.35672 | 151.12730 | 1682 ft | 33 kts | 156° |
| 2026-04-20 07:34 | -31.36067 | 151.12886 | 1695 ft | 82 kts | 158° |
| 2026-04-20 07:35 | -31.37357 | 151.13720 | 2231 ft | 124 kts | 152° |
| 2026-04-20 07:35 | -31.38135 | 151.14226 | 2594 ft | 131 kts | 151° |
| 2026-04-20 07:35 | -31.38893 | 151.14820 | 3046 ft | 132 kts | 143° |
| 2026-04-20 07:35 | -31.39618 | 151.15539 | 3425 ft | 141 kts | 136° |
| 2026-04-20 07:36 | -31.40255 | 151.16408 | 3842 ft | 141 kts | 130° |
| 2026-04-20 07:36 | -31.40976 | 151.17190 | 4251 ft | 142 kts | 139° |
| 2026-04-20 07:36 | -31.41701 | 151.17918 | 4678 ft | 139 kts | 140° |
| 2026-04-20 07:36 | -31.42425 | 151.18705 | 5054 ft | 145 kts | 137° |
| 2026-04-20 07:37 | -31.43156 | 151.19532 | 5408 ft | 146 kts | 137° |
| 2026-04-20 07:37 | -31.43892 | 151.20350 | 5791 ft | 144 kts | 136° |
| 2026-04-20 07:37 | -31.44597 | 151.21172 | 6188 ft | 143 kts | 139° |
| 2026-04-20 07:37 | -31.45304 | 151.21993 | 6526 ft | 147 kts | 138° |
| 2026-04-20 07:38 | -31.46078 | 151.22915 | 6545 ft | 170 kts | 137° |
| 2026-04-20 07:38 | -31.46959 | 151.23938 | 6547 ft | 186 kts | 138° |
| 2026-04-20 07:38 | -31.47913 | 151.25025 | 6546 ft | 196 kts | 137° |
| 2026-04-20 07:38 | -31.48903 | 151.26146 | 6545 ft | 204 kts | 138° |
| 2026-04-20 07:39 | -31.49936 | 151.27315 | 6559 ft | 209 kts | 139° |
| 2026-04-20 07:39 | -31.50983 | 151.28506 | 6552 ft | 210 kts | 138° |
| 2026-04-20 07:39 | -31.52040 | 151.29702 | 6539 ft | 211 kts | 138° |
| 2026-04-20 07:39 | -31.53088 | 151.30893 | 6549 ft | 210 kts | 138° |
| 2026-04-20 07:40 | -31.54134 | 151.32094 | 6544 ft | 212 kts | 138° |
| 2026-04-20 07:40 | -31.55185 | 151.33300 | 6541 ft | 211 kts | 138° |
| 2026-04-20 07:40 | -31.56232 | 151.34502 | 6554 ft | 210 kts | 138° |
| 2026-04-20 07:40 | -31.57263 | 151.35707 | 6556 ft | 209 kts | 137° |
| 2026-04-20 07:41 | -31.58298 | 151.36902 | 6548 ft | 210 kts | 138° |
| 2026-04-20 07:41 | -31.59323 | 151.38089 | 6546 ft | 210 kts | 138° |
| 2026-04-20 07:41 | -31.60368 | 151.39290 | 6552 ft | 210 kts | 138° |
| 2026-04-20 07:41 | -31.61419 | 151.40482 | 6556 ft | 212 kts | 138° |
| 2026-04-20 07:42 | -31.62474 | 151.41696 | 6522 ft | 212 kts | 139° |
| 2026-04-20 07:42 | -31.63517 | 151.42890 | 6564 ft | 210 kts | 137° |
| 2026-04-20 07:42 | -31.64558 | 151.44103 | 6555 ft | 211 kts | 137° |
| 2026-04-20 07:42 | -31.65605 | 151.45310 | 6562 ft | 210 kts | 138° |
| 2026-04-20 07:43 | -31.66652 | 151.46513 | 6552 ft | 211 kts | 138° |
| 2026-04-20 07:43 | -31.67685 | 151.47709 | 6544 ft | 212 kts | 138° |
| 2026-04-20 07:43 | -31.68731 | 151.48915 | 6556 ft | 210 kts | 137° |
| 2026-04-20 07:43 | -31.69771 | 151.50112 | 6545 ft | 210 kts | 138° |
| 2026-04-20 07:44 | -31.70810 | 151.51319 | 6552 ft | 210 kts | 138° |
| 2026-04-20 07:44 | -31.71854 | 151.52526 | 6547 ft | 211 kts | 138° |
| 2026-04-20 07:44 | -31.72905 | 151.53717 | 6555 ft | 210 kts | 138° |
| 2026-04-20 07:44 | -31.73957 | 151.54928 | 6550 ft | 213 kts | 137° |
| 2026-04-20 07:45 | -31.75027 | 151.56149 | 6552 ft | 214 kts | 138° |
| 2026-04-20 07:45 | -31.76092 | 151.57362 | 6566 ft | 213 kts | 138° |
| 2026-04-20 07:45 | -31.77133 | 151.58563 | 6565 ft | 212 kts | 137° |
| 2026-04-20 07:45 | -31.78190 | 151.59783 | 6565 ft | 214 kts | 138° |
| 2026-04-20 07:46 | -31.79258 | 151.61010 | 6561 ft | 214 kts | 138° |
| 2026-04-20 07:46 | -31.80321 | 151.62234 | 6567 ft | 214 kts | 138° |
| 2026-04-20 07:46 | -31.81386 | 151.63465 | 6563 ft | 216 kts | 138° |
| 2026-04-20 07:46 | -31.82452 | 151.64703 | 6560 ft | 215 kts | 139° |
| 2026-04-20 07:47 | -31.83506 | 151.65942 | 6555 ft | 214 kts | 138° |
| 2026-04-20 07:47 | -31.84556 | 151.67187 | 6566 ft | 215 kts | 138° |
| 2026-04-20 07:47 | -31.85627 | 151.68429 | 6554 ft | 216 kts | 138° |
| 2026-04-20 07:47 | -31.86668 | 151.69650 | 6560 ft | 213 kts | 138° |
| 2026-04-20 07:48 | -31.87715 | 151.70881 | 6565 ft | 213 kts | 138° |
| 2026-04-20 07:48 | -31.88767 | 151.72116 | 6562 ft | 213 kts | 138° |
| 2026-04-20 07:48 | -31.89818 | 151.73353 | 6570 ft | 214 kts | 138° |
| 2026-04-20 07:48 | -31.90872 | 151.74600 | 6564 ft | 216 kts | 138° |
| 2026-04-20 07:49 | -31.91928 | 151.75855 | 6554 ft | 216 kts | 138° |
| 2026-04-20 07:49 | -31.92981 | 151.77096 | 6560 ft | 213 kts | 139° |
| 2026-04-20 07:49 | -31.94025 | 151.78334 | 6555 ft | 213 kts | 138° |
| 2026-04-20 07:49 | -31.95053 | 151.79555 | 6555 ft | 214 kts | 137° |
| 2026-04-20 07:50 | -31.96112 | 151.80793 | 6557 ft | 215 kts | 138° |
| 2026-04-20 07:50 | -31.97177 | 151.82047 | 6552 ft | 218 kts | 138° |
| 2026-04-20 07:50 | -31.98246 | 151.83308 | 6554 ft | 217 kts | 138° |
| 2026-04-20 07:50 | -31.99318 | 151.84564 | 6537 ft | 217 kts | 138° |
| 2026-04-20 07:51 | -32.00380 | 151.85809 | 6553 ft | 215 kts | 138° |
| 2026-04-20 07:51 | -32.01437 | 151.87054 | 6546 ft | 215 kts | 138° |
| 2026-04-20 07:51 | -32.02491 | 151.88299 | 6550 ft | 214 kts | 138° |
| 2026-04-20 07:51 | -32.03541 | 151.89543 | 6553 ft | 214 kts | 138° |
| 2026-04-20 07:52 | -32.04580 | 151.90782 | 6544 ft | 216 kts | 138° |
| 2026-04-20 07:52 | -32.05635 | 151.92035 | 6549 ft | 215 kts | 138° |
| 2026-04-20 07:52 | -32.06689 | 151.93279 | 6547 ft | 214 kts | 138° |
| 2026-04-20 07:52 | -32.07743 | 151.94510 | 6550 ft | 213 kts | 138° |
| 2026-04-20 07:53 | -32.08798 | 151.95731 | 6548 ft | 212 kts | 138° |
| 2026-04-20 07:53 | -32.09846 | 151.96941 | 6611 ft | 209 kts | 139° |
| 2026-04-20 07:53 | -32.11077 | 151.97797 | 6565 ft | 208 kts | 169° |
| 2026-04-20 07:53 | -32.12492 | 151.97539 | 6559 ft | 212 kts | 204° |
| 2026-04-20 07:54 | -32.13735 | 151.96593 | 6556 ft | 212 kts | 212° |
| 2026-04-20 07:54 | -32.14916 | 151.95587 | 6552 ft | 206 kts | 212° |
| 2026-04-20 07:54 | -32.16047 | 151.94625 | 6552 ft | 201 kts | 212° |
| 2026-04-20 07:54 | -32.17171 | 151.93668 | 6548 ft | 198 kts | 212° |
| 2026-04-20 07:55 | -32.18278 | 151.92730 | 6576 ft | 194 kts | 213° |
| 2026-04-20 07:55 | -32.19375 | 151.91814 | 6569 ft | 192 kts | 212° |
| 2026-04-20 07:55 | -32.20504 | 151.90989 | 6564 ft | 189 kts | 200° |
| 2026-04-20 07:55 | -32.21745 | 151.90505 | 6578 ft | 188 kts | 196° |
| 2026-04-20 07:56 | -32.22981 | 151.89994 | 6569 ft | 189 kts | 197° |
| 2026-04-20 07:56 | -32.24221 | 151.89480 | 6561 ft | 188 kts | 198° |
| 2026-04-20 07:56 | -32.25458 | 151.88975 | 6559 ft | 188 kts | 197° |
| 2026-04-20 07:56 | -32.26690 | 151.88459 | 6560 ft | 188 kts | 198° |
| 2026-04-20 07:57 | -32.27929 | 151.87947 | 6557 ft | 189 kts | 197° |
| 2026-04-20 07:57 | -32.29151 | 151.87439 | 6559 ft | 189 kts | 197° |
| 2026-04-20 07:57 | -32.30383 | 151.86926 | 6579 ft | 187 kts | 197° |
| 2026-04-20 07:57 | -32.31611 | 151.86406 | 6566 ft | 187 kts | 198° |
| 2026-04-20 07:58 | -32.32843 | 151.85890 | 6541 ft | 189 kts | 197° |
| 2026-04-20 07:58 | -32.34091 | 151.85360 | 6442 ft | 193 kts | 198° |
| 2026-04-20 07:58 | -32.35367 | 151.84826 | 6328 ft | 196 kts | 197° |
| 2026-04-20 07:58 | -32.36658 | 151.84289 | 6213 ft | 198 kts | 197° |
| 2026-04-20 07:59 | -32.37965 | 151.83748 | 6091 ft | 199 kts | 197° |
| 2026-04-20 07:59 | -32.39274 | 151.83202 | 5974 ft | 200 kts | 197° |
| 2026-04-20 07:59 | -32.40577 | 151.82662 | 5930 ft | 197 kts | 197° |
| 2026-04-20 07:59 | -32.41845 | 151.82119 | 5863 ft | 196 kts | 197° |
| 2026-04-20 08:00 | -32.43131 | 151.81568 | 5763 ft | 197 kts | 197° |
| 2026-04-20 08:00 | -32.44426 | 151.81011 | 5661 ft | 198 kts | 197° |
| 2026-04-20 08:00 | -32.45727 | 151.80461 | 5549 ft | 199 kts | 197° |
| 2026-04-20 08:00 | -32.47032 | 151.79905 | 5426 ft | 199 kts | 198° |
| 2026-04-20 08:01 | -32.48341 | 151.79351 | 5315 ft | 200 kts | 198° |
| 2026-04-20 08:01 | -32.49659 | 151.78795 | 5195 ft | 201 kts | 197° |
| 2026-04-20 08:01 | -32.50979 | 151.78238 | 5077 ft | 201 kts | 198° |
| 2026-04-20 08:01 | -32.52246 | 151.77590 | 4959 ft | 203 kts | 210° |
| 2026-04-20 08:02 | -32.53380 | 151.76573 | 4830 ft | 205 kts | 213° |
| 2026-04-20 08:02 | -32.54531 | 151.75581 | 4707 ft | 205 kts | 212° |
| 2026-04-20 08:02 | -32.55690 | 151.74592 | 4586 ft | 205 kts | 212° |
| 2026-04-20 08:02 | -32.56850 | 151.73602 | 4453 ft | 205 kts | 212° |
| 2026-04-20 08:03 | -32.58007 | 151.72611 | 4325 ft | 205 kts | 213° |
| 2026-04-20 08:03 | -32.59170 | 151.71625 | 4196 ft | 206 kts | 212° |
| 2026-04-20 08:03 | -32.60332 | 151.70643 | 4073 ft | 205 kts | 212° |
| 2026-04-20 08:03 | -32.61493 | 151.69661 | 3946 ft | 205 kts | 212° |
| 2026-04-20 08:04 | -32.62653 | 151.68678 | 3829 ft | 204 kts | 212° |
| 2026-04-20 08:04 | -32.63795 | 151.67709 | 3700 ft | 204 kts | 213° |
| 2026-04-20 08:04 | -32.64951 | 151.66733 | 3580 ft | 204 kts | 212° |
| 2026-04-20 08:04 | -32.66101 | 151.65763 | 3528 ft | 201 kts | 212° |
| 2026-04-20 08:05 | -32.67239 | 151.64807 | 3460 ft | 200 kts | 212° |
| 2026-04-20 08:05 | -32.68378 | 151.63862 | 3371 ft | 201 kts | 212° |
| 2026-04-20 08:05 | -32.69524 | 151.62910 | 3261 ft | 201 kts | 211° |
| 2026-04-20 08:05 | -32.70784 | 151.62229 | 3139 ft | 200 kts | 196° |
| 2026-04-20 08:06 | -32.72116 | 151.61750 | 3029 ft | 200 kts | 194° |
| 2026-04-20 08:06 | -32.73434 | 151.61286 | 2907 ft | 200 kts | 195° |
| 2026-04-20 08:06 | -32.74772 | 151.60825 | 2789 ft | 201 kts | 194° |
| 2026-04-20 08:06 | -32.76114 | 151.60357 | 2677 ft | 201 kts | 194° |
| 2026-04-20 08:07 | -32.77457 | 151.59892 | 2532 ft | 201 kts | 194° |
| 2026-04-20 08:07 | -32.78800 | 151.59426 | 2418 ft | 200 kts | 194° |
| 2026-04-20 08:07 | -32.80132 | 151.58957 | 2286 ft | 200 kts | 194° |
| 2026-04-20 08:07 | -32.81456 | 151.58483 | 2160 ft | 197 kts | 195° |
| 2026-04-20 08:08 | -32.82328 | 151.58177 | 2084 ft | 198 kts | 195° |
| 2026-04-20 08:08 | -32.83644 | 151.57729 | 1946 ft | 196 kts | 194° |
| 2026-04-20 08:08 | -32.84952 | 151.57304 | 1824 ft | 194 kts | 195° |
| 2026-04-20 08:08 | -32.86671 | 151.56749 | 1652 ft | 195 kts | 194° |
| 2026-04-20 08:09 | -32.87970 | 151.56326 | 1514 ft | 192 kts | 194° |
| 2026-04-20 08:09 | -32.89250 | 151.55895 | 1490 ft | 191 kts | 194° |
| 2026-04-20 08:09 | -32.90523 | 151.55476 | 1492 ft | 190 kts | 194° |
| 2026-04-20 08:09 | -32.91788 | 151.55055 | 1503 ft | 187 kts | 195° |
| 2026-04-20 08:10 | -32.92627 | 151.54783 | 1502 ft | 189 kts | 194° |
| 2026-04-20 08:10 | -32.93892 | 151.54373 | 1508 ft | 188 kts | 196° |
| 2026-04-20 08:10 | -32.95570 | 151.53830 | 1495 ft | 189 kts | 194° |
| 2026-04-20 08:10 | -32.96422 | 151.53549 | 1514 ft | 188 kts | 194° |
| 2026-04-20 08:11 | -32.97673 | 151.53124 | 1513 ft | 187 kts | 195° |
| 2026-04-20 08:11 | -32.98906 | 151.52700 | 1514 ft | 186 kts | 194° |
| 2026-04-20 08:11 | -33.00142 | 151.52267 | 1511 ft | 185 kts | 195° |
| 2026-04-20 08:11 | -33.01387 | 151.51847 | 1513 ft | 186 kts | 194° |
| 2026-04-20 08:12 | -33.02633 | 151.51419 | 1510 ft | 186 kts | 194° |
| 2026-04-20 08:12 | -33.03877 | 151.50998 | 1507 ft | 185 kts | 195° |
| 2026-04-20 08:12 | -33.05114 | 151.50583 | 1503 ft | 185 kts | 194° |
| 2026-04-20 08:12 | -33.06344 | 151.50167 | 1506 ft | 183 kts | 195° |
| 2026-04-20 08:13 | -33.07562 | 151.49757 | 1497 ft | 181 kts | 194° |
| 2026-04-20 08:13 | -33.08752 | 151.49355 | 1505 ft | 180 kts | 195° |
| 2026-04-20 08:13 | -33.09960 | 151.48951 | 1505 ft | 181 kts | 195° |
| 2026-04-20 08:13 | -33.11178 | 151.48559 | 1508 ft | 181 kts | 194° |
| 2026-04-20 08:14 | -33.12394 | 151.48163 | 1502 ft | 181 kts | 195° |
| 2026-04-20 08:14 | -33.13616 | 151.47780 | 1495 ft | 182 kts | 194° |
| 2026-04-20 08:14 | -33.14821 | 151.47383 | 1510 ft | 179 kts | 195° |
| 2026-04-20 08:14 | -33.16023 | 151.46998 | 1501 ft | 179 kts | 194° |
| 2026-04-20 08:15 | -33.17230 | 151.46608 | 1504 ft | 180 kts | 195° |
| 2026-04-20 08:15 | -33.18440 | 151.46219 | 1511 ft | 181 kts | 194° |
| 2026-04-20 08:15 | -33.19657 | 151.45831 | 1507 ft | 180 kts | 194° |
| 2026-04-20 08:15 | -33.20868 | 151.45455 | 1510 ft | 180 kts | 194° |
| 2026-04-20 08:16 | -33.22058 | 151.45066 | 1511 ft | 180 kts | 194° |
| 2026-04-20 08:16 | -33.23263 | 151.44664 | 1514 ft | 179 kts | 194° |
| 2026-04-20 08:16 | -33.24454 | 151.44256 | 1511 ft | 178 kts | 195° |
| 2026-04-20 08:16 | -33.25646 | 151.43861 | 1514 ft | 178 kts | 194° |
| 2026-04-20 08:17 | -33.26841 | 151.43453 | 1515 ft | 179 kts | 195° |
| 2026-04-20 08:17 | -33.28037 | 151.43043 | 1515 ft | 180 kts | 194° |
| 2026-04-20 08:17 | -33.29237 | 151.42629 | 1516 ft | 179 kts | 195° |
| 2026-04-20 08:17 | -33.30413 | 151.42219 | 1514 ft | 171 kts | 194° |
| 2026-04-20 08:18 | -33.31531 | 151.41858 | 1507 ft | 162 kts | 192° |
| 2026-04-20 08:18 | -33.32587 | 151.41529 | 1508 ft | 158 kts | 194° |
| 2026-04-20 08:18 | -33.33630 | 151.41136 | 1508 ft | 156 kts | 196° |
| 2026-04-20 08:18 | -33.34664 | 151.40758 | 1506 ft | 156 kts | 195° |
| 2026-04-20 08:19 | -33.35700 | 151.40394 | 1515 ft | 156 kts | 194° |
| 2026-04-20 08:19 | -33.36752 | 151.40043 | 1507 ft | 156 kts | 196° |
| 2026-04-20 08:19 | -33.37800 | 151.39734 | 1518 ft | 156 kts | 192° |
| 2026-04-20 08:19 | -33.38851 | 151.39393 | 1510 ft | 157 kts | 195° |
| 2026-04-20 08:20 | -33.39885 | 151.39042 | 1517 ft | 153 kts | 194° |
| 2026-04-20 08:20 | -33.40920 | 151.38709 | 1520 ft | 154 kts | 194° |
| 2026-04-20 08:20 | -33.41946 | 151.38343 | 1519 ft | 159 kts | 195° |
| 2026-04-20 08:20 | -33.43009 | 151.37968 | 1530 ft | 159 kts | 195° |
| 2026-04-20 08:21 | -33.44071 | 151.37602 | 1527 ft | 157 kts | 195° |
| 2026-04-20 08:21 | -33.45115 | 151.37252 | 1520 ft | 154 kts | 195° |
| 2026-04-20 08:21 | -33.46136 | 151.36905 | 1531 ft | 155 kts | 195° |
| 2026-04-20 08:21 | -33.47179 | 151.36546 | 1516 ft | 152 kts | 195° |
| 2026-04-20 08:22 | -33.48197 | 151.36183 | 1519 ft | 154 kts | 195° |
| 2026-04-20 08:22 | -33.49219 | 151.35833 | 1520 ft | 152 kts | 194° |
| 2026-04-20 08:22 | -33.50215 | 151.35464 | 1520 ft | 152 kts | 194° |
| 2026-04-20 08:22 | -33.51236 | 151.35160 | 1510 ft | 151 kts | 180° |
| 2026-04-20 08:23 | -33.52220 | 151.35539 | 1508 ft | 149 kts | 159° |
| 2026-04-20 08:23 | -33.53152 | 151.36062 | 1525 ft | 147 kts | 157° |
| 2026-04-20 08:23 | -33.54074 | 151.36616 | 1516 ft | 149 kts | 157° |
| 2026-04-20 08:23 | -33.55010 | 151.37149 | 1517 ft | 149 kts | 158° |
| 2026-04-20 08:24 | -33.55955 | 151.37673 | 1512 ft | 150 kts | 158° |
| 2026-04-20 08:24 | -33.56900 | 151.38211 | 1511 ft | 150 kts | 158° |
| 2026-04-20 08:24 | -33.57848 | 151.38745 | 1515 ft | 150 kts | 158° |
| 2026-04-20 08:24 | -33.58789 | 151.39263 | 1515 ft | 151 kts | 158° |
| 2026-04-20 08:25 | -33.59737 | 151.39793 | 1515 ft | 151 kts | 158° |
| 2026-04-20 08:25 | -33.60684 | 151.40341 | 1519 ft | 151 kts | 157° |
| 2026-04-20 08:25 | -33.61645 | 151.40880 | 1520 ft | 153 kts | 158° |
| 2026-04-20 08:25 | -33.62607 | 151.41407 | 1522 ft | 151 kts | 157° |
| 2026-04-20 08:26 | -33.63590 | 151.41796 | 1510 ft | 144 kts | 179° |
| 2026-04-20 08:26 | -33.64419 | 151.41306 | 1486 ft | 124 kts | 216° |
| 2026-04-20 08:26 | -33.64978 | 151.40680 | 1485 ft | 97 kts | 214° |
| 2026-04-20 08:26 | -33.65456 | 151.40166 | 1489 ft | 89 kts | 213° |
| 2026-04-20 08:27 | -33.65887 | 151.39674 | 1491 ft | 84 kts | 213° |
| 2026-04-20 08:27 | -33.66314 | 151.39172 | 1487 ft | 88 kts | 214° |
| 2026-04-20 08:27 | -33.66758 | 151.38646 | 1491 ft | 91 kts | 214° |
| 2026-04-20 08:27 | -33.67218 | 151.38111 | 1500 ft | 93 kts | 214° |
| 2026-04-20 08:28 | -33.67694 | 151.37576 | 1506 ft | 96 kts | 213° |
| 2026-04-20 08:28 | -33.68192 | 151.37014 | 1507 ft | 99 kts | 213° |
| 2026-04-20 08:28 | -33.68715 | 151.36448 | 1508 ft | 103 kts | 216° |
| 2026-04-20 08:28 | -33.69266 | 151.35899 | 1508 ft | 103 kts | 213° |
| 2026-04-20 08:29 | -33.69818 | 151.35337 | 1506 ft | 104 kts | 213° |
| 2026-04-20 08:29 | -33.70350 | 151.34776 | 1490 ft | 100 kts | 214° |
| 2026-04-20 08:29 | -33.70854 | 151.34244 | 1490 ft | 94 kts | 213° |
| 2026-04-20 08:29 | -33.71331 | 151.33750 | 1492 ft | 87 kts | 212° |
| 2026-04-20 08:30 | -33.71760 | 151.33258 | 1501 ft | 83 kts | 214° |
| 2026-04-20 08:30 | -33.72194 | 151.32787 | 1484 ft | 86 kts | 214° |
| 2026-04-20 08:30 | -33.72636 | 151.32306 | 1502 ft | 85 kts | 213° |
| 2026-04-20 08:30 | -33.73075 | 151.31823 | 1499 ft | 86 kts | 214° |
| 2026-04-20 08:31 | -33.73524 | 151.31344 | 1502 ft | 86 kts | 213° |
| 2026-04-20 08:31 | -33.73992 | 151.30914 | 1486 ft | 83 kts | 211° |
| 2026-04-20 08:31 | -33.74437 | 151.30491 | 1501 ft | 82 kts | 211° |
| 2026-04-20 08:31 | -33.74885 | 151.30048 | 1505 ft | 85 kts | 212° |
| 2026-04-20 08:32 | -33.75333 | 151.29591 | 1510 ft | 87 kts | 212° |
| 2026-04-20 08:32 | -33.75776 | 151.29144 | 1490 ft | 78 kts | 211° |
| 2026-04-20 08:32 | -33.76172 | 151.28738 | 1510 ft | 78 kts | 212° |
| 2026-04-20 08:32 | -33.76612 | 151.28313 | 1513 ft | 85 kts | 212° |
| 2026-04-20 08:33 | -33.77073 | 151.27860 | 1515 ft | 86 kts | 211° |
| 2026-04-20 08:33 | -33.78037 | 151.26956 | 1514 ft | 91 kts | 213° |
| 2026-04-20 08:33 | -33.78534 | 151.26493 | 1518 ft | 91 kts | 213° |
| 2026-04-20 08:34 | -33.79052 | 151.26017 | 1520 ft | 95 kts | 211° |
| 2026-04-20 08:34 | -33.79561 | 151.25530 | 1517 ft | 91 kts | 212° |
| 2026-04-20 08:34 | -33.80055 | 151.25069 | 1516 ft | 95 kts | 211° |
| 2026-04-20 08:34 | -33.80601 | 151.24598 | 1514 ft | 97 kts | 212° |
| 2026-04-20 08:35 | -33.81177 | 151.24114 | 1352 ft | 106 kts | 207° |
| 2026-04-20 08:35 | -33.81830 | 151.23674 | 1224 ft | 111 kts | 206° |
| 2026-04-20 08:35 | -33.82515 | 151.23260 | 1023 ft | 107 kts | 204° |
| 2026-04-20 08:35 | -33.83156 | 151.22860 | 920 ft | 102 kts | 203° |
| 2026-04-20 08:36 | -33.83763 | 151.22473 | 857 ft | 94 kts | 205° |
| 2026-04-20 08:36 | -33.84349 | 151.22154 | 791 ft | 92 kts | 198° |
| 2026-04-20 08:36 | -33.84932 | 151.21895 | 683 ft | 86 kts | 192° |
| 2026-04-20 08:36 | -33.85502 | 151.21991 | 631 ft | 87 kts | 153° |
| 2026-04-20 08:37 | -33.85748 | 151.22653 | 620 ft | 102 kts | 85° |
| 2026-04-20 08:37 | -33.85260 | 151.23358 | 612 ft | 125 kts | 37° |
| 2026-04-20 08:37 | -33.84412 | 151.23471 | 640 ft | 129 kts | 331° |
| 2026-04-20 08:37 | -33.84066 | 151.22601 | 589 ft | 116 kts | 245° |
| 2026-04-20 08:38 | -33.84593 | 151.21964 | 530 ft | 109 kts | 207° |
| 2026-04-20 08:38 | -33.85219 | 151.21660 | 534 ft | 95 kts | 165° |
| 2026-04-20 08:38 | -33.85619 | 151.22271 | 608 ft | 103 kts | 109° |
| 2026-04-20 08:38 | -33.85333 | 151.23091 | 627 ft | 127 kts | 34° |
| 2026-04-20 08:39 | -33.84497 | 151.23008 | 692 ft | 122 kts | 321° |
| 2026-04-20 08:39 | -33.84274 | 151.22154 | 645 ft | 112 kts | 231° |
| 2026-04-20 08:39 | -33.84948 | 151.22007 | 371 ft | 120 kts | 142° |
| 2026-04-20 08:39 | -33.85255 | 151.22860 | 188 ft | 91 kts | 118° |
| 2026-04-20 08:40 | -33.84961 | 151.23424 | 460 ft | 109 kts | 12° |
| 2026-04-20 08:40 | -33.84286 | 151.22990 | 625 ft | 119 kts | 295° |
| 2026-04-20 08:40 | -33.84172 | 151.22119 | 722 ft | 101 kts | 227° |
| 2026-04-20 08:40 | -33.84725 | 151.22049 | 437 ft | 90 kts | 141° |
| 2026-04-20 08:41 | -33.85052 | 151.22686 | 61 ft | 84 kts | 128° |
| 2026-04-20 08:41 | -33.85292 | 151.23207 | 9 ft | 59 kts | 127° |
| 2026-04-20 08:41 | -33.85446 | 151.23501 | 6 ft | 21 kts | 133° |
| 2026-04-20 08:41 | -33.85510 | 151.23566 | 6 ft | 5 kts | 147° |
| 2026-04-20 08:42 | -33.85534 | 151.23591 | 6 ft | 5 kts | 134° |
| 2026-04-20 08:42 | -33.85553 | 151.23664 | 6 ft | 14 kts | 84° |
| 2026-04-20 08:42 | -33.85512 | 151.23754 | 6 ft | 10 kts | 31° |
| 2026-04-20 08:42 | -33.85444 | 151.23764 | 6 ft | 14 kts | 338° |
| 2026-04-20 08:43 | -33.85353 | 151.23657 | 5 ft | 17 kts | 304° |
| 2026-04-20 08:43 | -33.85290 | 151.23562 | 6 ft | 14 kts | 310° |
| 2026-04-20 08:43 | -33.85224 | 151.23477 | 6 ft | 15 kts | 319° |
| 2026-04-20 08:43 | -33.85110 | 151.23369 | 7 ft | 28 kts | 316° |
| 2026-04-20 08:44 | -33.85017 | 151.23179 | 10 ft | 18 kts | 272° |
| 2026-04-20 08:44 | -33.85032 | 151.23102 | 10 ft | 6 kts | 237° |
| 2026-04-20 08:44 | -33.85039 | 151.23036 | 6 ft | 8 kts | 288° |
| 2026-04-20 08:44 | -33.85015 | 151.22963 | 6 ft | 12 kts | 286° |
| 2026-04-20 08:45 | -33.84995 | 151.22833 | 7 ft | 22 kts | 266° |
| 2026-04-20 08:45 | -33.85031 | 151.22725 | 6 ft | 6 kts | 214° |
| 2026-04-20 08:45 | -33.85034 | 151.22713 | 5 ft | 3 kts | 162° |
| 2026-04-20 08:45 | -33.85026 | 151.22716 | 6 ft | 3 kts | 149° |
| 2026-04-20 08:46 | -33.85118 | 151.22862 | 9 ft | 52 kts | 122° |
| 2026-04-20 08:46 | -33.85339 | 151.23409 | 122 ft | 87 kts | 121° |
| 2026-04-20 08:46 | -33.85619 | 151.24134 | 382 ft | 98 kts | 116° |
| 2026-04-20 08:46 | -33.85634 | 151.24981 | 577 ft | 114 kts | 82° |
| 2026-04-20 08:47 | -33.85083 | 151.25748 | 752 ft | 130 kts | 37° |
| 2026-04-20 08:47 | -33.84236 | 151.26212 | 926 ft | 136 kts | 28° |
| 2026-04-20 08:47 | -33.83363 | 151.26719 | 967 ft | 145 kts | 30° |
| 2026-04-20 08:47 | -33.82427 | 151.27258 | 950 ft | 150 kts | 29° |
| 2026-04-20 08:48 | -33.81519 | 151.27782 | 1009 ft | 144 kts | 29° |
| 2026-04-20 08:48 | -33.80624 | 151.28326 | 1029 ft | 145 kts | 31° |
| 2026-04-20 08:48 | -33.79706 | 151.28873 | 964 ft | 150 kts | 29° |
| 2026-04-20 08:48 | -33.78783 | 151.29474 | 925 ft | 152 kts | 35° |
| 2026-04-20 08:49 | -33.77882 | 151.30093 | 1005 ft | 146 kts | 34° |
| 2026-04-20 08:49 | -33.77008 | 151.30689 | 1113 ft | 142 kts | 34° |
| 2026-04-20 08:49 | -33.76157 | 151.31230 | 1231 ft | 135 kts | 33° |
| 2026-04-20 08:49 | -33.75317 | 151.31743 | 1353 ft | 135 kts | 32° |
| 2026-04-20 08:50 | -33.74498 | 151.32256 | 1463 ft | 130 kts | 33° |
| 2026-04-20 08:50 | -33.73698 | 151.32769 | 1504 ft | 136 kts | 33° |
| 2026-04-20 08:50 | -33.72836 | 151.33303 | 1510 ft | 142 kts | 32° |
| 2026-04-20 08:50 | -33.71940 | 151.33863 | 1512 ft | 149 kts | 33° |
| 2026-04-20 08:51 | -33.70942 | 151.34497 | 1520 ft | 179 kts | 32° |
| 2026-04-20 08:51 | -33.69778 | 151.35265 | 1530 ft | 202 kts | 32° |
| 2026-04-20 08:51 | -33.68504 | 151.36111 | 1527 ft | 215 kts | 33° |
| 2026-04-20 08:51 | -33.67173 | 151.37000 | 1520 ft | 223 kts | 33° |
| 2026-04-20 08:52 | -33.65801 | 151.37892 | 1516 ft | 227 kts | 32° |
| 2026-04-20 08:52 | -33.64406 | 151.38803 | 1517 ft | 228 kts | 34° |
| 2026-04-20 08:52 | -33.63008 | 151.39710 | 1510 ft | 229 kts | 31° |
| 2026-04-20 08:52 | -33.61634 | 151.40609 | 1517 ft | 227 kts | 33° |
| 2026-04-20 08:53 | -33.60248 | 151.41519 | 1511 ft | 227 kts | 33° |
| 2026-04-20 08:53 | -33.58873 | 151.42427 | 1511 ft | 225 kts | 32° |
| 2026-04-20 08:53 | -33.57465 | 151.43230 | 1531 ft | 225 kts | 21° |
| 2026-04-20 08:53 | -33.55944 | 151.43671 | 1531 ft | 226 kts | 16° |
| 2026-04-20 08:54 | -33.54413 | 151.44147 | 1528 ft | 227 kts | 17° |
| 2026-04-20 08:54 | -33.52883 | 151.44640 | 1519 ft | 228 kts | 18° |
| 2026-04-20 08:54 | -33.51350 | 151.45140 | 1517 ft | 228 kts | 17° |
| 2026-04-20 08:54 | -33.49828 | 151.45654 | 1513 ft | 227 kts | 17° |
| 2026-04-20 08:55 | -33.48309 | 151.46169 | 1510 ft | 226 kts | 18° |
| 2026-04-20 08:55 | -33.46822 | 151.46686 | 1507 ft | 227 kts | 17° |
| 2026-04-20 08:55 | -33.45310 | 151.47219 | 1510 ft | 226 kts | 18° |
| 2026-04-20 08:55 | -33.43798 | 151.47731 | 1512 ft | 227 kts | 17° |
| 2026-04-20 08:56 | -33.42279 | 151.48255 | 1513 ft | 227 kts | 18° |
| 2026-04-20 08:56 | -33.40763 | 151.48780 | 1510 ft | 226 kts | 18° |
| 2026-04-20 08:56 | -33.39254 | 151.49301 | 1512 ft | 225 kts | 18° |
| 2026-04-20 08:56 | -33.37751 | 151.49813 | 1512 ft | 224 kts | 17° |
| 2026-04-20 08:57 | -33.36250 | 151.50326 | 1515 ft | 224 kts | 18° |
| 2026-04-20 08:57 | -33.34744 | 151.50819 | 1512 ft | 224 kts | 18° |
| 2026-04-20 08:57 | -33.33263 | 151.51318 | 1513 ft | 224 kts | 18° |
| 2026-04-20 08:57 | -33.31759 | 151.51826 | 1513 ft | 225 kts | 17° |
| 2026-04-20 08:58 | -33.30262 | 151.52333 | 1508 ft | 223 kts | 17° |
| 2026-04-20 08:58 | -33.28764 | 151.52839 | 1503 ft | 224 kts | 19° |
| 2026-04-20 08:58 | -33.27285 | 151.53356 | 1622 ft | 217 kts | 21° |
| 2026-04-20 08:58 | -33.25906 | 151.53995 | 1905 ft | 210 kts | 24° |
| 2026-04-20 08:59 | -33.24536 | 151.54629 | 2024 ft | 214 kts | 24° |
| 2026-04-20 08:59 | -33.23131 | 151.55286 | 2130 ft | 219 kts | 24° |
| 2026-04-20 08:59 | -33.21714 | 151.55984 | 2160 ft | 224 kts | 27° |
| 2026-04-20 08:59 | -33.20310 | 151.56675 | 2100 ft | 205 kts | 22° |
| 2026-04-20 09:00 | -33.19089 | 151.57164 | 1962 ft | 168 kts | 21° |
| 2026-04-20 09:00 | -33.18047 | 151.57587 | 1718 ft | 151 kts | 21° |
| 2026-04-20 09:00 | -33.17064 | 151.57967 | 1411 ft | 147 kts | 21° |
| 2026-04-20 09:00 | -33.16157 | 151.58414 | 1204 ft | 134 kts | 26° |
| 2026-04-20 09:01 | -33.15312 | 151.58848 | 947 ft | 130 kts | 26° |
| 2026-04-20 09:01 | -33.14495 | 151.59237 | 790 ft | 120 kts | 26° |
| 2026-04-20 09:01 | -33.13781 | 151.59610 | 670 ft | 106 kts | 28° |
| 2026-04-20 09:01 | -33.13112 | 151.59941 | 514 ft | 102 kts | 26° |
| 2026-04-20 09:02 | -33.12469 | 151.60242 | 379 ft | 97 kts | 27° |
| 2026-04-20 09:02 | -33.11841 | 151.60513 | 283 ft | 91 kts | 23° |
| 2026-04-20 09:02 | -33.11266 | 151.60759 | 231 ft | 89 kts | 25° |
| 2026-04-20 09:02 | -33.10716 | 151.61033 | 244 ft | 84 kts | 31° |
| 2026-04-20 09:03 | -33.10240 | 151.61418 | 230 ft | 83 kts | 46° |
| 2026-04-20 09:03 | -33.09790 | 151.61876 | 251 ft | 84 kts | 46° |
| 2026-04-20 09:03 | -33.09356 | 151.62314 | 318 ft | 82 kts | 47° |
| 2026-04-20 09:03 | -33.08925 | 151.62758 | 320 ft | 83 kts | 45° |
| 2026-04-20 09:04 | -33.08488 | 151.63211 | 335 ft | 85 kts | 60° |
| 2026-04-20 09:04 | -33.08073 | 151.63806 | 176 ft | 104 kts | 40° |
| 2026-04-20 09:04 | -33.07382 | 151.63932 | 48 ft | 97 kts | 355° |
| 2026-04-20 09:04 | -33.06759 | 151.63873 | 6 ft | 78 kts | 355° |
| 2026-04-20 09:05 | -33.06390 | 151.63821 | 5 ft | 28 kts | 342° |
| 2026-04-20 09:05 | -33.06273 | 151.63774 | 5 ft | 16 kts | 358° |
| 2026-04-20 09:05 | -33.06104 | 151.63844 | 5 ft | 17 kts | 39° |
| 2026-04-20 09:05 | -33.06087 | 151.63843 | 5 ft | 6 kts | 86° |
| 2026-04-20 09:06 | -33.06076 | 151.63800 | 4 ft | 4 kts | 109° |
| 2026-04-20 09:06 | -33.06070 | 151.63760 | 4 ft | 5 kts | 92° |
| 2026-04-20 09:06 | -33.06071 | 151.63727 | 5 ft | 1 kts | 88° |
| 2026-04-20 09:06 | -33.06069 | 151.63736 | 5 ft | 1 kts | 110° |